台北 の空港の天気 - METARとTAF

台湾桃園国際空港 ( RCTP / TPE ) - 台湾 台北市
飛行場実況気象(Metar)
観測時間04/25 14:30 CST (04/25 06:30 UTC)
風向・風速北北東 9m/s
視程10km以上
天気現象
少しの雲 雲底高度 610m
全天の8割程度の雲 雲底高度 2440m
気温24℃
湿度61%
気圧1012hPa
METARRCTP 250630Z 03017KT 9999 FEW020 BKN080 24/16 Q1012 NOSIG RMK A2991
過去の天気等 Google飛行場航空写真 Wunderground天気予報

過去48時間のMETAR

飛行場予報(TAF)
発表時間: 4/25 13:00 CST (4/25 05:00 UTC)
予報対象時間: 25日14時 CST ~ 26日20時 CST
風向・風速北東 8m/s
視程10km以上
少しの雲 雲底高度 610m
全天の8割程度の雲 雲底高度 1,830m
25日19時 CST ~ 25日21時 CST に徐々に
風向・風速東 5m/s
26日2時 CST ~ 26日8時 CST に一時的に
風向・風速南東 3m/s
26日8時 CST ~ 26日10時 CST に徐々に
風向・風速北東 7m/s
TAF RCTP 250500Z 2506/2612 05016KT 9999 FEW020 BKN060
BECMG 2511/2513 08010KT
TEMPO 2518/2524 13005KT
BECMG 2600/2602 05013KT